Time;durP1;ratioP1;P1;durP2;ratioP2;P2;SDS_P1;SDS_P2;PMS_P1;PMS_P2;Temp;Humidity;BMP_temperature;BMP_pressure;BME280_temperature;BME280_humidity;BME280_pressure;Samples;Min_cycle;Max_cycle;Signal;HPM_P1;HPM_P2
2021/05/23 00:00:17;;;;;;;3.53;3.20;;;9.40;99.90;;;;;;6310368;22;20853;-63
2021/05/23 00:02:43;;;;;;;6.00;3.73;;;9.40;99.90;;;;;;6310824;22;20391;-63
2021/05/23 00:05:17;;;;;;;4.20;3.20;;;9.40;99.90;;;;;;6307323;22;20424;-63
2021/05/23 00:07:53;;;;;;;3.30;3.00;;;9.40;99.90;;;;;;6311200;22;20565;-63
2021/05/23 00:10:22;;;;;;;4.60;3.20;;;9.40;99.90;;;;;;6310891;22;20447;-63
2021/05/23 00:12:51;;;;;;;5.40;3.53;;;9.30;99.90;;;;;;6310966;22;20446;-63
2021/05/23 00:15:25;;;;;;;2.97;2.73;;;9.30;99.90;;;;;;6309924;22;20415;-63
2021/05/23 00:17:52;;;;;;;5.73;3.50;;;9.30;99.90;;;;;;6310929;22;20441;-63
2021/05/23 00:20:19;;;;;;;7.00;3.23;;;9.30;99.90;;;;;;6311336;22;20416;-63
2021/05/23 00:22:47;;;;;;;4.77;3.40;;;9.40;99.90;;;;;;6311405;22;20526;-63
2021/05/23 00:25:17;;;;;;;4.00;3.00;;;9.30;99.90;;;;;;6311178;22;20427;-63
2021/05/23 00:27:44;;;;;;;5.83;3.80;;;9.30;99.90;;;;;;6311133;22;20416;-63
2021/05/23 00:30:12;;;;;;;4.53;2.17;;;9.30;99.90;;;;;;6310168;22;20514;-63
2021/05/23 00:32:39;;;;;;;5.77;2.80;;;9.40;99.90;;;;;;6310647;22;20712;-63
2021/05/23 00:35:10;;;;;;;3.23;2.47;;;9.40;99.90;;;;;;6310974;22;20412;-63
2021/05/23 00:37:39;;;;;;;5.60;2.60;;;9.40;99.90;;;;;;6310535;22;20420;-63
2021/05/23 00:40:09;;;;;;;3.20;2.83;;;9.40;99.90;;;;;;6310149;22;20419;-63
2021/05/23 00:42:36;;;;;;;3.37;2.43;;;9.30;99.90;;;;;;6310841;22;20420;-63
2021/05/23 00:45:04;;;;;;;9.23;2.93;;;9.30;99.90;;;;;;6311080;22;20768;-63
2021/05/23 00:47:31;;;;;;;4.03;2.57;;;9.30;99.90;;;;;;6310282;22;20423;-63
2021/05/23 00:49:57;;;;;;;4.60;3.00;;;9.30;99.90;;;;;;6311383;22;20444;-63
2021/05/23 00:52:24;;;;;;;4.53;2.37;;;9.40;99.90;;;;;;6311246;22;20412;-63
2021/05/23 00:54:51;;;;;;;3.10;2.50;;;9.40;99.90;;;;;;6311873;22;20416;-63
2021/05/23 00:57:18;;;;;;;4.70;2.67;;;9.40;99.90;;;;;;6310645;22;20416;-63
2021/05/23 00:59:45;;;;;;;3.63;2.57;;;9.40;99.90;;;;;;6311484;22;20408;-63
2021/05/23 01:02:36;;;;;;;3.53;2.60;;;9.30;99.90;;;;;;6310546;22;20494;-63
2021/05/23 01:05:03;;;;;;;2.43;2.20;;;9.40;99.90;;;;;;6307558;22;20424;-63
2021/05/23 01:07:29;;;;;;;2.70;2.23;;;9.30;99.90;;;;;;6309838;22;20826;-63
2021/05/23 01:09:56;;;;;;;2.67;2.47;;;9.40;99.90;;;;;;6310605;22;20448;-63
2021/05/23 01:13:04;;;;;;;4.23;3.00;;;9.40;99.90;;;;;;6310326;22;20417;-63
2021/05/23 01:15:35;;;;;;;5.70;3.03;;;9.40;99.90;;;;;;6236816;22;20511;-63
2021/05/23 01:18:10;;;;;;;7.63;2.90;;;9.30;99.90;;;;;;6310787;22;20438;-63
2021/05/23 01:20:49;;;;;;;3.17;2.80;;;9.40;99.90;;;;;;6311273;22;20749;-63
2021/05/23 02:00:12;;;;;;;3.37;2.90;;;9.20;99.90;;;;;;6307628;22;20432;-62
2021/05/23 02:02:39;;;;;;;5.10;3.20;;;9.20;99.90;;;;;;6307591;22;20420;-62
2021/05/23 02:05:11;;;;;;;2.50;2.27;;;9.20;99.90;;;;;;6307512;22;20416;-62
2021/05/23 02:07:38;;;;;;;3.43;2.73;;;9.20;99.90;;;;;;6310912;22;20416;-62
2021/05/23 02:10:10;;;;;;;5.80;3.20;;;9.20;99.90;;;;;;6310592;22;20466;-62
2021/05/23 02:12:39;;;;;;;3.60;2.90;;;9.20;99.90;;;;;;6310434;22;20424;-62
2021/05/23 02:15:11;;;;;;;3.80;3.17;;;9.20;99.90;;;;;;6310065;22;20885;-62
2021/05/23 02:17:38;;;;;;;4.57;3.10;;;9.20;99.90;;;;;;6309897;22;20876;-62
2021/05/23 02:20:06;;;;;;;3.53;3.00;;;9.20;99.90;;;;;;6309800;22;20387;-62
2021/05/23 02:59:25;;;;;;;6.40;4.43;;;9.00;99.90;;;;;;6298558;22;20244;-61
2021/05/23 03:01:52;;;;;;;5.20;4.70;;;9.00;99.90;;;;;;6310511;22;20701;-62
2021/05/23 03:04:18;;;;;;;5.20;4.80;;;9.00;99.90;;;;;;6305395;22;20473;-62
2021/05/23 03:06:45;;;;;;;6.03;5.17;;;9.00;99.90;;;;;;6308896;22;20423;-62
2021/05/23 03:09:17;;;;;;;6.47;5.33;;;9.00;99.90;;;;;;6309772;22;20448;-62
2021/05/23 03:11:43;;;;;;;8.47;4.60;;;9.00;99.90;;;;;;6309188;22;20420;-62
2021/05/23 03:14:10;;;;;;;5.90;5.50;;;9.00;99.90;;;;;;6309813;22;20462;-62
2021/05/23 03:16:38;;;;;;;6.57;6.07;;;9.00;99.90;;;;;;6309570;22;20448;-62
2021/05/23 03:19:04;;;;;;;6.50;5.00;;;9.00;99.90;;;;;;6309265;22;20482;-62
2021/05/23 03:21:31;;;;;;;6.43;5.83;;;9.00;99.90;;;;;;6308905;22;20416;-62
2021/05/23 03:23:57;;;;;;;5.50;5.00;;;9.00;99.90;;;;;;6309896;22;20419;-62
2021/05/23 03:26:24;;;;;;;6.57;6.07;;;9.00;99.90;;;;;;6310100;22;20416;-61
2021/05/23 03:28:51;;;;;;;6.33;5.80;;;9.00;99.90;;;;;;6308376;22;20447;-61
2021/05/23 03:31:17;;;;;;;6.07;5.50;;;8.90;99.90;;;;;;6308931;22;20420;-61
2021/05/23 03:33:45;;;;;;;6.37;5.83;;;8.90;99.90;;;;;;6309078;22;20416;-61
2021/05/23 04:14:10;;;;;;;11.80;10.70;;;8.80;99.90;;;;;;6278219;22;20228;-63
2021/05/23 04:16:37;;;;;;;11.90;10.80;;;8.80;99.90;;;;;;6280704;22;20420;-63
2021/05/23 04:54:51;;;;;;;11.37;10.37;;;9.10;99.90;;;;;;6300498;22;20544;-62
2021/05/23 04:57:18;;;;;;;14.20;12.70;;;9.10;99.90;;;;;;6310893;22;20703;-62
2021/05/23 04:59:45;;;;;;;15.43;13.40;;;9.10;99.90;;;;;;6311886;22;20412;-61
2021/05/23 05:02:12;;;;;;;15.27;13.90;;;9.10;99.90;;;;;;6309940;22;20701;-61
2021/05/23 05:04:38;;;;;;;16.60;14.80;;;9.10;99.90;;;;;;6306697;22;20416;-61
2021/05/23 05:07:05;;;;;;;14.90;13.37;;;9.10;99.90;;;;;;6310776;22;20519;-63
2021/05/23 05:09:31;;;;;;;16.43;14.80;;;9.10;99.90;;;;;;6310131;22;20452;-63
2021/05/23 05:11:59;;;;;;;15.53;13.90;;;9.10;99.90;;;;;;6310448;22;20428;-64
2021/05/23 05:14:25;;;;;;;16.90;15.20;;;9.20;99.90;;;;;;6310476;22;20977;-64
2021/05/23 05:16:52;;;;;;;17.10;14.53;;;9.20;99.90;;;;;;6310481;22;20553;-64
2021/05/23 05:19:19;;;;;;;17.20;15.40;;;9.20;99.90;;;;;;6310235;22;20429;-64
2021/05/23 05:21:45;;;;;;;18.87;16.30;;;9.20;99.90;;;;;;6310835;22;20423;-64
2021/05/23 05:24:12;;;;;;;17.27;15.23;;;9.20;99.90;;;;;;6310224;22;20916;-64
2021/05/23 05:26:39;;;;;;;17.90;16.10;;;9.20;99.90;;;;;;6309797;22;20420;-64
2021/05/23 05:29:07;;;;;;;19.27;17.40;;;9.20;99.90;;;;;;6310639;22;20436;-65
2021/05/23 06:09:55;;;;;;;8.77;6.40;;;8.90;99.90;;;;;;6282354;22;20699;-64
2021/05/23 06:12:28;;;;;;;7.83;7.03;;;8.80;99.90;;;;;;6280319;22;20420;-64
2021/05/23 06:14:55;;;;;;;7.23;5.77;;;8.90;99.90;;;;;;6279742;22;20436;-64
2021/05/23 06:17:22;;;;;;;5.67;5.17;;;8.90;99.90;;;;;;6279307;22;20405;-64
2021/05/23 06:19:50;;;;;;;6.83;5.80;;;8.90;99.90;;;;;;6279659;22;20865;-64
2021/05/23 06:22:22;;;;;;;7.10;4.80;;;8.90;99.90;;;;;;6278731;22;20440;-64
2021/05/23 06:25:01;;;;;;;4.90;4.53;;;9.10;99.90;;;;;;6279338;22;20424;-64
2021/05/23 06:27:28;;;;;;;8.83;4.43;;;9.10;99.90;;;;;;6279408;22;20416;-65
2021/05/23 06:30:03;;;;;;;6.03;4.80;;;9.00;99.90;;;;;;6278568;22;20449;-65
2021/05/23 06:32:32;;;;;;;7.37;4.50;;;9.00;99.90;;;;;;6278909;22;20417;-65
2021/05/23 06:35:04;;;;;;;9.17;5.90;;;8.90;99.90;;;;;;6278198;22;20444;-65
2021/05/23 06:37:33;;;;;;;6.13;5.43;;;8.90;99.90;;;;;;6279257;22;20402;-65
2021/05/23 06:40:00;;;;;;;9.10;5.03;;;8.90;99.90;;;;;;6278604;22;20413;-65
2021/05/23 06:42:30;;;;;;;5.80;5.10;;;8.90;99.90;;;;;;6278799;22;20528;-65
2021/05/23 06:44:58;;;;;;;6.80;5.40;;;9.00;99.90;;;;;;6278471;22;20417;-65
2021/05/23 06:47:27;;;;;;;8.40;5.30;;;8.90;99.90;;;;;;6279504;22;20428;-65
2021/05/23 06:49:54;;;;;;;5.60;4.80;;;8.90;99.90;;;;;;6278600;22;20456;-64
2021/05/23 06:52:21;;;;;;;8.57;5.33;;;8.90;99.90;;;;;;6279034;22;20701;-64
2021/05/23 06:54:50;;;;;;;6.07;5.47;;;8.90;99.90;;;;;;6278084;22;20413;-64
2021/05/23 06:57:19;;;;;;;7.80;5.57;;;8.90;99.90;;;;;;6279002;22;20421;-64
2021/05/23 06:59:45;;;;;;;9.23;6.27;;;8.80;99.90;;;;;;6278277;22;20705;-64
2021/05/23 07:02:14;;;;;;;6.37;5.63;;;8.80;99.90;;;;;;6278528;22;20497;-65
2021/05/23 07:04:40;;;;;;;8.63;6.53;;;8.80;99.90;;;;;;6276864;22;20857;-65
2021/05/23 07:07:07;;;;;;;12.30;6.60;;;8.80;99.90;;;;;;6277527;22;20417;-65
2021/05/23 07:09:34;;;;;;;7.73;5.30;;;8.80;99.90;;;;;;6278817;22;20449;-65
2021/05/23 07:12:01;;;;;;;6.27;5.67;;;8.70;99.90;;;;;;6279217;22;20897;-64
2021/05/23 07:14:31;;;;;;;9.60;6.50;;;8.80;99.90;;;;;;6278226;22;20716;-64
2021/05/23 07:17:04;;;;;;;14.30;5.17;;;8.90;99.90;;;;;;6278952;22;20417;-65
2021/05/23 07:19:30;;;;;;;7.20;5.40;;;9.10;99.90;;;;;;6278340;22;20417;-65
2021/05/23 07:22:22;;;;;;;5.70;5.17;;;9.30;99.90;;;;;;6279045;22;20757;-65
2021/05/23 07:24:49;;;;;;;9.10;5.43;;;9.50;99.90;;;;;;6277394;22;20528;-65
2021/05/23 07:27:25;;;;;;;6.57;4.13;;;9.80;99.90;;;;;;6278740;22;20670;-65
2021/05/23 07:29:56;;;;;;;8.00;4.93;;;9.90;99.90;;;;;;6278401;22;20452;-65
2021/05/23 07:32:26;;;;;;;4.90;4.40;;;10.00;99.90;;;;;;6279049;22;20413;-65
2021/05/23 07:34:52;;;;;;;6.00;4.40;;;10.10;99.90;;;;;;6278475;22;20461;-65
2021/05/23 07:37:19;;;;;;;7.93;3.93;;;10.10;99.90;;;;;;6278190;22;20413;-65
2021/05/23 07:39:46;;;;;;;10.90;4.87;;;10.30;99.90;;;;;;6278897;22;20460;-65
2021/05/23 07:42:12;;;;;;;10.50;3.90;;;10.80;99.90;;;;;;6278888;22;20416;-65
2021/05/23 07:44:46;;;;;;;7.87;4.03;;;11.10;99.90;;;;;;6277920;22;20413;-65
2021/05/23 07:47:14;;;;;;;12.40;4.93;;;11.40;99.90;;;;;;6279027;22;20508;-65
2021/05/23 07:49:41;;;;;;;9.33;3.57;;;12.20;99.90;;;;;;6280501;22;20492;-64
2021/05/23 07:52:10;;;;;;;4.63;4.00;;;12.70;99.90;;;;;;6280360;22;20919;-64
2021/05/23 07:54:38;;;;;;;8.47;4.00;;;13.00;99.90;;;;;;6281296;22;20830;-64
2021/05/23 07:57:06;;;;;;;4.63;3.30;;;13.00;99.90;;;;;;6281033;22;20417;-64
2021/05/23 07:59:32;;;;;;;5.33;3.80;;;12.70;99.90;;;;;;6280883;22;20413;-63
2021/05/23 08:02:00;;;;;;;9.10;3.23;;;12.50;99.90;;;;;;6280463;22;20478;-63
2021/05/23 08:04:33;;;;;;;7.20;3.20;;;13.00;99.90;;;;;;6278705;22;20803;-62
2021/05/23 08:07:03;;;;;;;7.40;3.53;;;13.00;99.90;;;;;;6280454;22;20423;-62
2021/05/23 08:09:36;;;;;;;5.00;3.33;;;13.20;99.90;;;;;;6280677;22;20543;-62
2021/05/23 08:12:12;;;;;;;5.20;3.00;;;13.30;99.90;;;;;;6280265;22;20417;-62
2021/05/23 08:14:38;;;;;;;5.23;2.97;;;13.60;99.90;;;;;;6279967;22;20459;-62
2021/05/23 08:17:10;;;;;;;8.83;3.87;;;13.30;99.90;;;;;;6280542;22;20417;-62
2021/05/23 08:19:44;;;;;;;4.50;3.40;;;13.70;99.90;;;;;;6280113;22;20419;-62
2021/05/23 08:22:14;;;;;;;4.80;3.13;;;13.80;99.90;;;;;;6280722;22;20421;-62
2021/05/23 08:24:40;;;;;;;4.27;3.33;;;14.10;99.90;;;;;;6280394;22;20730;-62
2021/05/23 08:27:10;;;;;;;4.70;2.57;;;14.30;99.90;;;;;;6279958;22;20812;-62
2021/05/23 08:29:39;;;;;;;8.40;3.70;;;14.70;99.90;;;;;;6280102;22;20445;-62
2021/05/23 08:32:07;;;;;;;4.60;2.80;;;14.80;94.80;;;;;;6280274;22;20846;-62
2021/05/23 08:34:34;;;;;;;5.07;2.90;;;14.60;92.20;;;;;;6279873;22;20425;-62
2021/05/23 08:37:01;;;;;;;4.43;2.50;;;15.20;92.70;;;;;;6280066;22;20417;-62
2021/05/23 08:39:29;;;;;;;8.63;3.40;;;15.50;88.50;;;;;;6280002;22;20412;-61
2021/05/23 08:41:59;;;;;;;8.33;2.70;;;14.90;83.20;;;;;;6280003;22;20423;-61
2021/05/23 08:44:27;;;;;;;6.77;3.00;;;14.50;88.40;;;;;;6279878;22;20425;-61
2021/05/23 08:46:56;;;;;;;2.93;2.50;;;14.30;87.80;;;;;;6280358;22;20422;-61
2021/05/23 08:49:33;;;;;;;6.83;3.00;;;14.80;91.70;;;;;;6280665;22;20445;-60
2021/05/23 08:52:06;;;;;;;6.43;2.63;;;14.90;88.20;;;;;;6279966;22;20425;-60
2021/05/23 08:54:41;;;;;;;6.20;2.83;;;15.60;86.20;;;;;;6280448;22;20421;-61
2021/05/23 08:57:08;;;;;;;6.30;2.70;;;15.70;81.90;;;;;;6280365;22;20865;-61
2021/05/23 08:59:41;;;;;;;3.87;2.40;;;14.80;84.70;;;;;;6279119;22;20477;-60
2021/05/23 09:02:09;;;;;;;5.37;3.13;;;14.50;85.70;;;;;;6279709;22;20401;-57
2021/05/23 09:04:47;;;;;;;4.27;2.77;;;14.50;87.20;;;;;;6277956;22;20423;-60
2021/05/23 09:07:15;;;;;;;4.17;2.60;;;14.10;89.60;;;;;;6280093;22;20416;-61
2021/05/23 09:09:54;;;;;;;7.63;3.03;;;13.50;92.60;;;;;;6279591;22;20453;-61
2021/05/23 09:12:21;;;;;;;5.10;2.93;;;13.00;93.30;;;;;;6279851;22;20417;-61
2021/05/23 09:14:52;;;;;;;3.83;3.10;;;12.70;94.30;;;;;;6279966;22;20425;-59
2021/05/23 09:17:21;;;;;;;2.63;2.20;;;13.00;96.00;;;;;;6279723;22;20413;-60
2021/05/23 09:19:48;;;;;;;5.70;2.80;;;14.40;97.60;;;;;;6279007;22;20453;-56
2021/05/23 09:22:18;;;;;;;4.83;2.87;;;15.70;93.10;;;;;;6279761;22;20710;-60
2021/05/23 09:24:52;;;;;;;5.70;2.40;;;16.10;84.80;;;;;;6280184;22;20424;-61
2021/05/23 09:27:20;;;;;;;8.20;3.47;;;15.70;80.70;;;;;;6278630;22;20428;-61
2021/05/23 09:30:21;;;;;;;3.93;2.20;;;15.90;80.50;;;;;;6279489;22;20449;-60
2021/05/23 09:32:58;;;;;;;7.33;2.83;;;15.90;76.90;;;;;;6279509;22;20404;-61
2021/05/23 09:35:44;;;;;;;3.03;2.73;;;15.60;77.30;;;;;;6279040;22;20842;-60
2021/05/23 09:38:29;;;;;;;7.03;2.90;;;14.90;76.30;;;;;;6279088;22;20861;-59
2021/05/23 09:40:58;;;;;;;3.87;2.67;;;14.40;81.80;;;;;;6279367;22;20417;-59
2021/05/23 09:43:26;;;;;;;5.70;2.63;;;14.30;82.60;;;;;;6279153;22;20515;-61
2021/05/23 09:45:57;;;;;;;3.80;2.30;;;14.10;84.30;;;;;;6279642;22;20421;-60
2021/05/23 09:48:37;;;;;;;5.40;2.70;;;14.40;87.10;;;;;;6279758;22;20421;-60
2021/05/23 09:51:15;;;;;;;5.17;3.17;;;14.40;84.20;;;;;;6278697;22;20551;-60
2021/05/23 09:54:00;;;;;;;7.10;2.93;;;14.20;87.50;;;;;;6279420;22;20420;-60
2021/05/23 09:56:58;;;;;;;3.70;2.50;;;14.20;86.60;;;;;;6275290;22;20438;-60
2021/05/23 09:59:28;;;;;;;3.43;2.73;;;13.80;81.90;;;;;;6231384;22;20875;-60
2021/05/23 10:02:07;;;;;;;2.97;2.60;;;13.70;89.50;;;;;;6274302;22;20428;-59
2021/05/23 10:04:35;;;;;;;8.30;2.67;;;14.60;88.40;;;;;;6270770;22;20519;-60
2021/05/23 10:07:04;;;;;;;6.10;3.10;;;15.00;80.70;;;;;;6274615;22;20421;-59
2021/05/23 10:09:31;;;;;;;4.63;2.43;;;15.20;80.80;;;;;;6274528;22;20453;-56
2021/05/23 10:12:02;;;;;;;3.73;2.63;;;15.40;76.50;;;;;;6273526;22;20417;-57
2021/05/23 10:14:29;;;;;;;4.30;2.83;;;15.50;74.50;;;;;;6275205;22;20929;-54
2021/05/23 10:17:01;;;;;;;5.87;2.70;;;15.60;74.10;;;;;;6274477;22;20416;-54
2021/05/23 10:19:30;;;;;;;3.60;2.10;;;16.00;73.90;;;;;;6274844;22;20417;-54
2021/05/23 10:22:00;;;;;;;3.17;2.50;;;16.00;70.70;;;;;;6276376;22;20417;-54
2021/05/23 10:24:30;;;;;;;4.43;2.30;;;15.40;72.20;;;;;;6279255;22;20896;-56
2021/05/23 10:27:00;;;;;;;6.77;2.60;;;15.00;75.00;;;;;;6278681;22;20797;-53
2021/05/23 10:29:27;;;;;;;4.00;2.70;;;15.30;78.40;;;;;;6278433;22;20916;-54
2021/05/23 10:32:07;;;;;;;4.60;2.67;;;15.40;72.70;;;;;;6276540;22;20428;-54
2021/05/23 10:34:39;;;;;;;4.03;2.43;;;15.30;69.60;;;;;;6277720;22;20424;-54
2021/05/23 10:37:13;;;;;;;2.67;2.10;;;16.00;68.60;;;;;;6277333;22;20416;-58
2021/05/23 10:39:49;;;;;;;6.53;2.53;;;16.10;65.80;;;;;;6277095;22;20445;-57
2021/05/23 10:42:17;;;;;;;3.40;2.50;;;15.30;66.00;;;;;;6277576;22;20448;-52
2021/05/23 10:44:45;;;;;;;2.77;2.17;;;15.00;69.80;;;;;;6279430;22;20935;-52
2021/05/23 10:47:14;;;;;;;5.17;2.80;;;15.40;67.90;;;;;;6278820;22;20428;-50
2021/05/23 10:49:52;;;;;;;4.83;2.70;;;15.70;64.80;;;;;;6278655;22;20688;-54
2021/05/23 10:52:19;;;;;;;3.67;2.67;;;15.50;64.20;;;;;;6278436;22;20435;-57
2021/05/23 10:55:00;;;;;;;7.00;2.30;;;15.50;66.00;;;;;;6278622;22;20433;-52
2021/05/23 10:57:39;;;;;;;3.73;2.40;;;14.90;66.80;;;;;;6278506;22;20726;-58
2021/05/23 11:00:10;;;;;;;2.30;2.10;;;14.40;68.90;;;;;;6278476;22;20837;-51
2021/05/23 11:02:38;;;;;;;4.33;2.70;;;15.10;68.50;;;;;;6276432;22;20698;-57
2021/05/23 11:05:10;;;;;;;5.17;2.70;;;16.40;68.70;;;;;;6275775;22;20421;-57
2021/05/23 11:07:37;;;;;;;6.53;2.17;;;16.90;61.30;;;;;;6278570;22;20435;-57
2021/05/23 11:10:18;;;;;;;6.30;2.80;;;16.70;60.20;;;;;;6277806;22;20457;-51
2021/05/23 11:12:54;;;;;;;2.53;2.13;;;17.50;60.60;;;;;;6278288;22;20398;-57
2021/05/23 11:15:21;;;;;;;3.90;2.43;;;18.10;58.10;;;;;;6278100;22;20423;-56
2021/05/23 11:17:54;;;;;;;5.83;2.73;;;18.00;56.90;;;;;;6277543;22;21071;-58
2021/05/23 11:20:23;;;;;;;3.73;2.83;;;16.70;57.20;;;;;;6278477;22;20409;-56
2021/05/23 11:23:01;;;;;;;2.23;2.03;;;15.60;59.00;;;;;;6278671;22;20420;-57
2021/05/23 11:25:27;;;;;;;2.90;2.07;;;15.30;63.10;;;;;;6279151;22;20486;-49
2021/05/23 11:28:03;;;;;;;5.33;2.60;;;16.40;63.30;;;;;;6281028;22;20395;-51
2021/05/23 11:30:32;;;;;;;4.10;2.27;;;17.00;59.80;;;;;;6279266;22;20511;-52
2021/05/23 11:33:07;;;;;;;7.77;3.47;;;16.40;58.20;;;;;;6280657;22;20417;-55
2021/05/23 12:10:03;;;;;;;9.03;3.27;;;15.00;58.40;;;;;;6304728;22;20844;-48
2021/05/23 12:12:35;;;;;;;3.10;2.67;;;14.80;60.50;;;;;;6311761;22;20420;-51
2021/05/23 12:15:03;;;;;;;6.73;2.80;;;14.60;61.30;;;;;;6311254;22;20958;-56
2021/05/23 12:17:30;;;;;;;5.07;2.50;;;15.60;62.40;;;;;;6311435;22;20709;-55
2021/05/23 12:19:59;;;;;;;5.70;2.80;;;16.60;58.50;;;;;;6310590;22;20412;-57
2021/05/23 12:22:30;;;;;;;4.30;2.77;;;17.00;56.80;;;;;;6310887;22;20420;-57
2021/05/23 12:24:59;;;;;;;2.43;2.30;;;16.80;56.30;;;;;;6310124;22;20412;-54
2021/05/23 12:27:28;;;;;;;4.00;2.57;;;16.30;56.00;;;;;;6311304;22;20466;-53
2021/05/23 12:30:06;;;;;;;6.93;2.50;;;17.10;56.60;;;;;;6310375;22;20542;-56
2021/05/23 12:32:41;;;;;;;4.37;1.83;;;17.80;55.00;;;;;;6310791;22;20423;-54
2021/05/23 12:35:13;;;;;;;3.40;2.70;;;18.10;54.60;;;;;;6310209;22;20423;-54
2021/05/23 12:37:41;;;;;;;3.80;2.83;;;17.50;52.70;;;;;;6311171;22;20416;-52
2021/05/23 12:40:23;;;;;;;4.90;2.90;;;16.50;53.90;;;;;;6310409;22;20852;-55
2021/05/23 12:42:51;;;;;;;4.60;2.40;;;15.90;55.20;;;;;;6310687;22;20416;-50
2021/05/23 12:45:23;;;;;;;2.93;2.47;;;15.50;55.90;;;;;;6310436;22;20836;-56
2021/05/23 12:47:55;;;;;;;3.03;2.00;;;16.10;54.90;;;;;;6311606;22;20841;-57
2021/05/23 12:50:36;;;;;;;2.40;2.20;;;16.80;54.80;;;;;;6310755;22;20440;-53
2021/05/23 13:29:26;;;;;;;2.13;2.03;;;17.90;51.50;;;;;;6294911;22;20456;-56
2021/05/23 13:31:52;;;;;;;4.17;2.30;;;18.00;50.30;;;;;;6279840;22;20409;-54
2021/05/23 13:34:22;;;;;;;5.47;2.77;;;17.50;49.60;;;;;;6279595;22;20424;-56
2021/05/23 13:36:49;;;;;;;2.80;2.20;;;17.30;50.20;;;;;;6310419;22;20416;-52
2021/05/23 13:39:16;;;;;;;5.00;2.73;;;17.30;50.20;;;;;;6310525;22;20419;-53
2021/05/23 13:41:43;;;;;;;3.63;2.73;;;17.70;51.20;;;;;;6310669;22;20864;-53
2021/05/23 13:44:12;;;;;;;2.47;2.27;;;17.70;51.30;;;;;;6310194;22;20412;-52
2021/05/23 13:46:40;;;;;;;4.23;2.80;;;17.90;51.70;;;;;;6309839;22;20419;-55
2021/05/23 13:49:08;;;;;;;4.03;2.23;;;18.40;51.30;;;;;;6308897;22;20412;-54
2021/05/23 13:51:36;;;;;;;3.10;2.37;;;18.60;51.00;;;;;;6309671;22;20448;-53
2021/05/23 13:54:03;;;;;;;3.60;2.40;;;18.70;50.90;;;;;;6309627;22;20486;-55
2021/05/23 13:56:30;;;;;;;2.50;2.20;;;18.90;50.20;;;;;;6310030;22;20847;-56
2021/05/23 13:59:01;;;;;;;5.23;2.90;;;18.70;50.00;;;;;;6310385;22;20412;-57
2021/05/23 14:01:27;;;;;;;2.67;2.30;;;18.30;49.40;;;;;;6310194;22;20778;-57
2021/05/23 14:03:55;;;;;;;2.47;2.20;;;17.30;50.00;;;;;;6304820;22;20420;-56
2021/05/23 14:06:21;;;;;;;5.70;2.63;;;17.70;51.80;;;;;;6310445;22;20423;-56
2021/05/23 14:08:50;;;;;;;2.70;2.13;;;18.00;51.10;;;;;;6310724;22;20510;-55
2021/05/23 14:11:17;;;;;;;2.50;2.30;;;17.90;51.40;;;;;;6310250;22;20892;-53
2021/05/23 14:13:44;;;;;;;4.60;2.70;;;18.00;51.30;;;;;;6308439;22;20547;-56
2021/05/23 14:16:10;;;;;;;2.30;2.07;;;18.90;51.80;;;;;;6309834;22;20423;-54
2021/05/23 14:18:38;;;;;;;2.83;2.20;;;19.60;51.10;;;;;;6310313;22;20872;-52
2021/05/23 14:21:08;;;;;;;3.50;2.73;;;19.60;50.00;;;;;;6309612;22;20871;-50
2021/05/23 14:23:36;;;;;;;3.47;2.70;;;18.90;49.50;;;;;;6310730;22;20416;-57
2021/05/23 14:26:05;;;;;;;3.47;2.80;;;18.60;50.10;;;;;;6309847;22;20416;-52
2021/05/23 14:28:32;;;;;;;2.93;2.73;;;18.50;51.60;;;;;;6309004;22;20439;-54
2021/05/23 14:30:59;;;;;;;2.90;2.70;;;18.30;51.30;;;;;;6309135;22;20896;-52
2021/05/23 14:33:26;;;;;;;2.57;2.37;;;18.10;51.80;;;;;;6309595;22;20395;-49
2021/05/23 14:35:53;;;;;;;9.40;3.20;;;18.20;51.80;;;;;;6309133;22;20443;-53
2021/05/23 14:38:23;;;;;;;3.33;2.40;;;18.50;52.40;;;;;;6310268;22;20470;-55
2021/05/23 14:40:50;;;;;;;4.30;2.77;;;18.80;52.10;;;;;;6309264;22;20822;-56
2021/05/23 14:43:20;;;;;;;4.20;3.10;;;18.80;50.60;;;;;;6309535;22;20424;-53
2021/05/23 14:45:47;;;;;;;3.43;3.10;;;18.60;51.10;;;;;;6309544;22;20443;-53
2021/05/23 14:48:13;;;;;;;3.63;2.00;;;18.80;51.20;;;;;;6310106;22;20421;-55
2021/05/23 14:50:40;;;;;;;2.37;1.87;;;19.00;51.30;;;;;;6308530;22;20440;-57
2021/05/23 14:53:07;;;;;;;2.10;1.90;;;18.40;50.90;;;;;;6310047;22;20395;-57
2021/05/23 14:55:39;;;;;;;3.00;2.47;;;17.60;51.80;;;;;;6309144;22;20420;-56
2021/05/23 14:58:06;;;;;;;3.73;3.17;;;17.30;52.30;;;;;;6309217;22;20420;-56
2021/05/23 15:00:32;;;;;;;2.97;2.73;;;16.90;53.10;;;;;;6308682;22;20470;-57
2021/05/23 15:03:00;;;;;;;2.47;2.27;;;16.50;53.30;;;;;;6306434;22;20420;-53
2021/05/23 15:05:27;;;;;;;5.77;2.60;;;16.50;54.30;;;;;;6307775;22;20427;-52
2021/05/23 15:07:54;;;;;;;2.50;2.30;;;16.60;55.20;;;;;;6309305;22;20431;-52
2021/05/23 15:10:23;;;;;;;3.10;2.30;;;17.10;55.60;;;;;;6309144;22;20919;-55
2021/05/23 15:12:50;;;;;;;4.23;2.40;;;17.40;55.10;;;;;;6308809;22;20416;-55
2021/05/23 15:15:17;;;;;;;6.87;2.30;;;17.80;54.80;;;;;;6309327;22;20416;-51
2021/05/23 15:17:44;;;;;;;2.73;2.53;;;17.60;53.30;;;;;;6309653;22;20416;-51
2021/05/23 15:20:12;;;;;;;3.80;2.60;;;17.20;53.90;;;;;;6310109;22;20435;-52
2021/05/23 15:22:38;;;;;;;4.17;2.50;;;17.30;54.50;;;;;;6309475;22;20423;-53
2021/05/23 15:25:06;;;;;;;2.33;2.13;;;17.50;54.50;;;;;;6309638;22;20412;-52
2021/05/23 15:30:48;;;;;;;2.67;2.00;;;17.70;53.90;;;;;;6308169;22;20539;-54
2021/05/23 15:33:16;;;;;;;3.70;2.10;;;17.90;54.00;;;;;;6309426;22;20428;-50
2021/05/23 15:35:43;;;;;;;2.50;2.30;;;17.90;53.90;;;;;;6309353;22;20718;-56
2021/05/23 15:38:09;;;;;;;5.50;2.90;;;17.90;54.20;;;;;;6309497;22;20415;-50
2021/05/23 15:40:39;;;;;;;3.20;2.70;;;18.20;53.60;;;;;;6309296;22;20914;-55
2021/05/23 15:43:08;;;;;;;5.17;2.53;;;17.70;53.10;;;;;;6309227;22;20727;-55
2021/05/23 15:45:35;;;;;;;2.50;2.17;;;17.70;53.10;;;;;;6308952;22;20924;-54
2021/05/23 15:48:06;;;;;;;3.77;2.67;;;17.50;54.20;;;;;;6308916;22;20412;-57
2021/05/23 15:50:35;;;;;;;3.37;2.97;;;17.30;54.30;;;;;;6307136;22;20961;-51
2021/05/23 15:53:02;;;;;;;3.20;2.90;;;17.00;55.00;;;;;;6309004;22;20416;-53
2021/05/23 15:55:30;;;;;;;3.00;2.13;;;16.90;55.10;;;;;;6308914;22;20481;-54
2021/05/23 15:57:59;;;;;;;4.00;2.37;;;16.70;55.00;;;;;;6308877;22;20725;-57
2021/05/23 16:00:29;;;;;;;3.03;2.30;;;16.50;55.50;;;;;;6308605;22;20831;-56
2021/05/23 16:02:56;;;;;;;2.70;2.00;;;16.20;56.10;;;;;;6305603;22;20390;-52
2021/05/23 16:05:24;;;;;;;5.17;2.70;;;16.10;56.80;;;;;;6308063;22;20383;-54
2021/05/23 16:07:51;;;;;;;3.90;2.50;;;16.30;57.30;;;;;;6310160;22;20420;-49
2021/05/23 16:10:17;;;;;;;3.20;2.90;;;16.40;56.90;;;;;;6310819;22;20414;-52
2021/05/23 16:12:44;;;;;;;4.53;2.90;;;16.50;56.50;;;;;;6310813;22;20450;-56
2021/05/23 16:15:11;;;;;;;6.83;3.30;;;16.40;56.70;;;;;;6310903;22;20870;-52
2021/05/23 16:17:42;;;;;;;2.53;2.30;;;16.40;57.20;;;;;;6311004;22;20420;-51
2021/05/23 16:20:11;;;;;;;4.23;2.57;;;16.60;57.20;;;;;;6310888;22;20518;-50
2021/05/23 16:22:38;;;;;;;3.10;2.50;;;16.60;56.60;;;;;;6310656;22;21058;-46
2021/05/23 16:25:05;;;;;;;3.10;2.80;;;16.40;57.30;;;;;;6310707;22;20775;-53
2021/05/23 16:27:32;;;;;;;3.47;2.60;;;16.30;57.60;;;;;;6310592;22;20545;-49
2021/05/23 16:29:59;;;;;;;2.53;2.33;;;16.30;57.70;;;;;;6310212;22;20497;-47
2021/05/23 16:32:25;;;;;;;4.03;2.67;;;16.50;58.30;;;;;;6310422;22;20768;-49
2021/05/23 16:34:52;;;;;;;5.23;2.20;;;16.60;58.30;;;;;;6310491;22;20420;-51
2021/05/23 16:37:19;;;;;;;3.23;2.30;;;16.40;57.80;;;;;;6310990;22;20427;-53
2021/05/23 16:39:46;;;;;;;4.37;2.77;;;16.20;58.10;;;;;;6310139;22;20842;-50
2021/05/23 16:42:20;;;;;;;3.27;2.33;;;16.30;58.30;;;;;;6309887;22;20416;-50
2021/05/23 16:44:46;;;;;;;3.20;2.53;;;16.00;58.60;;;;;;6310480;22;20745;-48
2021/05/23 16:47:13;;;;;;;5.00;2.50;;;16.30;59.80;;;;;;6310614;22;20420;-55
2021/05/23 16:49:40;;;;;;;5.70;2.10;;;16.50;59.10;;;;;;6309999;22;20412;-52
2021/05/23 16:52:06;;;;;;;3.33;2.30;;;16.70;58.50;;;;;;6310582;22;20424;-49
2021/05/23 16:54:34;;;;;;;5.00;2.70;;;16.50;59.00;;;;;;6310839;22;20419;-49
2021/05/23 16:57:01;;;;;;;4.90;3.23;;;16.30;59.30;;;;;;6311288;22;20725;-52
2021/05/23 16:59:30;;;;;;;3.83;2.87;;;16.30;59.90;;;;;;6309970;22;20427;-56
2021/05/23 17:01:59;;;;;;;7.20;2.47;;;16.30;60.60;;;;;;6311018;22;20709;-54
2021/05/23 17:04:30;;;;;;;2.87;2.40;;;16.10;59.40;;;;;;6305572;22;20391;-54
2021/05/23 17:06:57;;;;;;;2.53;2.20;;;16.00;60.00;;;;;;6310413;22;20421;-53
2021/05/23 17:09:24;;;;;;;2.13;1.97;;;15.60;60.10;;;;;;6310131;22;20477;-46
2021/05/23 17:11:51;;;;;;;6.17;2.60;;;15.50;60.90;;;;;;6310729;22;20455;-49
2021/05/23 17:14:18;;;;;;;2.37;2.17;;;15.60;62.00;;;;;;6310390;22;20427;-49
2021/05/23 17:16:44;;;;;;;3.83;1.80;;;15.70;63.00;;;;;;6311038;22;20412;-48
2021/05/23 17:19:16;;;;;;;3.43;1.90;;;15.90;61.00;;;;;;6310344;22;20416;-46